KDEH

Decorah Municipal Airport

Decorah, Iowa, USA
METAR KDEH 171455Z AUTO 32005KT 10SM CLR M03/M05 A3025 RMK AO2
Observed Flight Rules
Dec-17 @ 14:55 UTC (26 minutes ago) Visual Flight Rules
Wind Visibility Clouds
320° at 5 knots 10 miles
  • Clear skies
Temperatures Readings
Current -3°C / 27°F
Dewpoint -5°C / 23°F
Humidity 86%
Altimeter 30.25" Hg
Pressure 1024 hPa
Elevation 353
METAR KDEH 171455Z AUTO 32005KT 10SM CLR M03/M05 A3025 RMK AO2
Observed Flight Rules
Dec-17 @ 14:55 UTC
(26 minutes ago)
VFR
Wind Visibility
320° at 5 knots 10 miles
Clouds
  • Clear skies
Temperature Dewpoint
-3°C / 27°F -5°C / 23°F
Humidity Altimeter Pressure
86% 30.25" Hg 1024 hPa